Time;durP1;ratioP1;P1;durP2;ratioP2;P2;SDS_P1;SDS_P2;PMS_P1;PMS_P2;Temp;Humidity;BMP_temperature;BMP_pressure;BME280_temperature;BME280_humidity;BME280_pressure;Samples;Min_cycle;Max_cycle;Signal;HPM_P1;HPM_P2
2023/08/14 00:00:01;;;;;;;4.28;2.33;;;;;;;18.92;87.30;96056.25;2065202;28;20077;-59
2023/08/14 00:01:02;;;;;;;6.50;2.53;;;;;;;18.93;87.06;96062.31;2065115;28;20046;-59
2023/08/14 00:02:03;;;;;;;4.63;2.50;;;;;;;18.93;87.12;96059.69;2064887;28;20046;-60
2023/08/14 00:03:04;;;;;;;3.58;2.40;;;;;;;18.93;87.35;96064.97;2065930;28;20054;-59
2023/08/14 00:04:05;;;;;;;4.43;1.90;;;;;;;18.91;87.05;96056.34;2065259;28;20113;-59
2023/08/14 00:05:06;;;;;;;4.05;2.38;;;;;;;18.92;87.46;96060.63;2065634;28;20046;-59
2023/08/14 00:06:08;;;;;;;2.88;2.20;;;;;;;18.92;87.06;96064.13;2065634;28;20399;-59
2023/08/14 00:07:09;;;;;;;3.22;2.00;;;;;;;18.92;86.99;96055.38;2065504;28;20050;-59
2023/08/14 00:08:10;;;;;;;4.80;2.13;;;;;;;18.92;87.44;96052.75;2065520;28;20054;-59
2023/08/14 00:09:11;;;;;;;3.67;2.33;;;;;;;18.94;87.35;96049.03;2065671;28;20490;-59
2023/08/14 00:10:12;;;;;;;5.03;2.30;;;;;;;18.91;87.34;96048.44;2065241;28;20050;-60
2023/08/14 00:11:13;;;;;;;3.50;2.65;;;;;;;18.88;87.80;96046.06;2065253;28;20475;-59
2023/08/14 00:12:14;;;;;;;4.20;2.35;;;;;;;18.81;87.72;96032.56;2065205;28;20046;-59
2023/08/14 00:13:18;;;;;;;3.40;2.28;;;;;;;18.84;87.69;96036.72;2065604;28;20054;-60
2023/08/14 00:14:19;;;;;;;3.25;2.05;;;;;;;18.76;87.60;96028.63;2064755;28;20058;-59
2023/08/14 00:15:20;;;;;;;3.70;2.42;;;;;;;18.80;88.17;96035.31;2065592;28;20073;-59
2023/08/14 00:16:22;;;;;;;2.55;1.98;;;;;;;18.78;87.97;96040.69;2065448;28;20066;-59
2023/08/14 00:17:23;;;;;;;5.78;2.30;;;;;;;18.76;87.99;96037.34;2064876;28;20062;-60
2023/08/14 00:18:24;;;;;;;6.25;2.33;;;;;;;18.73;88.56;96033.13;2065134;28;20062;-60
2023/08/14 00:19:25;;;;;;;2.90;2.33;;;;;;;18.73;88.54;96037.56;2065558;28;20499;-59
2023/08/14 00:20:26;;;;;;;3.17;2.15;;;;;;;18.69;88.69;96036.97;2065614;28;20046;-60
2023/08/14 00:21:28;;;;;;;3.78;2.38;;;;;;;18.68;88.75;96037.94;2065564;28;20050;-59
2023/08/14 00:22:29;;;;;;;4.55;2.08;;;;;;;18.68;88.93;96030.03;2065435;28;20063;-60
2023/08/14 00:23:30;;;;;;;3.25;2.28;;;;;;;18.64;89.10;96030.41;2056540;28;20054;-60
2023/08/14 00:24:31;;;;;;;3.58;2.35;;;;;;;18.65;89.08;96030.25;2057053;28;20055;-59
2023/08/14 00:25:32;;;;;;;4.65;2.42;;;;;;;18.66;89.01;96033.75;2065562;28;20054;-59
2023/08/14 00:26:34;;;;;;;4.18;2.67;;;;;;;18.65;89.01;96038.16;2065012;28;20058;-60
2023/08/14 00:27:35;;;;;;;2.97;2.20;;;;;;;18.60;88.91;96037.69;2065826;28;20062;-60
2023/08/14 00:28:36;;;;;;;3.72;2.70;;;;;;;18.52;89.34;96029.56;2056231;28;20059;-60
2023/08/14 00:29:37;;;;;;;3.17;2.13;;;;;;;18.54;89.42;96042.59;2056635;28;20427;-60
2023/08/14 00:30:38;;;;;;;4.55;2.40;;;;;;;18.50;89.53;96039.38;2065770;28;20053;-60
2023/08/14 00:31:39;;;;;;;4.63;2.40;;;;;;;18.45;89.94;96034.47;2056697;28;20057;-60
2023/08/14 00:32:40;;;;;;;3.22;2.22;;;;;;;18.50;89.74;96034.94;2056967;28;20484;-60
2023/08/14 00:33:41;;;;;;;4.70;2.40;;;;;;;18.54;89.57;96030.28;2064986;28;20065;-60
2023/08/14 00:34:42;;;;;;;3.95;2.47;;;;;;;18.50;89.54;96027.06;2065087;28;20054;-60
2023/08/14 00:35:43;;;;;;;3.20;2.50;;;;;;;18.47;89.63;96026.44;2056925;28;20065;-60
2023/08/14 00:36:44;;;;;;;4.18;2.95;;;;;;;18.49;90.06;96024.53;2056801;28;20070;-60
2023/08/14 00:37:47;;;;;;;5.63;2.60;;;;;;;18.48;89.74;96018.44;2065096;28;20057;-60
2023/08/14 00:38:48;;;;;;;3.17;2.38;;;;;;;18.43;89.49;96027.66;2057871;28;20055;-60
2023/08/14 00:39:49;;;;;;;5.35;2.60;;;;;;;18.38;89.86;96014.03;2058458;28;20502;-60
2023/08/14 00:40:52;;;;;;;3.17;2.40;;;;;;;18.45;90.42;96031.00;2066464;28;20054;-60
2023/08/14 00:41:53;;;;;;;3.75;2.45;;;;;;;18.38;90.28;96027.19;2067020;28;20058;-60
2023/08/14 00:42:54;;;;;;;4.32;2.60;;;;;;;18.34;90.86;96028.38;2058484;28;20074;-60
2023/08/14 00:43:56;;;;;;;3.65;2.47;;;;;;;18.30;90.92;96030.41;2057851;28;20058;-60
2023/08/14 00:44:57;;;;;;;4.20;2.65;;;;;;;18.25;91.08;96027.28;2058303;28;20065;-60
2023/08/14 00:45:58;;;;;;;3.40;2.60;;;;;;;18.24;90.84;96015.94;2050645;28;20527;-60
2023/08/14 00:46:59;;;;;;;3.65;2.55;;;;;;;18.27;91.37;96017.50;2058638;28;20070;-60
2023/08/14 00:48:00;;;;;;;3.30;2.33;;;;;;;18.32;91.29;96023.25;2066983;28;20058;-60
2023/08/14 00:49:02;;;;;;;3.53;2.58;;;;;;;18.28;90.64;96017.38;2066491;28;20458;-60
2023/08/14 00:50:07;;;;;;;3.55;2.70;;;;;;;18.33;91.03;96013.56;2066083;28;20050;-60
2023/08/14 00:51:08;;;;;;;3.70;2.72;;;;;;;18.28;90.97;96011.28;2058101;28;20042;-60
2023/08/14 00:52:09;;;;;;;3.95;2.58;;;;;;;18.29;91.02;96013.78;2058172;28;20046;-60
2023/08/14 00:53:11;;;;;;;3.95;3.03;;;;;;;18.29;91.16;96012.97;2067097;28;20046;-60
2023/08/14 00:54:12;;;;;;;4.05;2.50;;;;;;;18.27;90.86;96007.81;2050006;29;20059;-59
2023/08/14 00:55:17;;;;;;;3.53;2.70;;;;;;;18.17;91.78;95998.97;2042621;29;20409;-59
2023/08/14 00:56:18;;;;;;;3.53;2.75;;;;;;;18.20;92.05;96001.38;2050497;28;20054;-59
2023/08/14 00:57:20;;;;;;;4.22;2.75;;;;;;;18.23;91.75;96008.16;2034862;29;20056;-60
2023/08/14 00:58:22;;;;;;;4.15;3.20;;;;;;;18.22;91.32;96007.34;2050682;28;20051;-61
2023/08/14 00:59:23;;;;;;;3.67;2.70;;;;;;;18.28;91.29;96011.28;2066302;28;20062;-60
2023/08/14 01:00:26;;;;;;;3.53;2.70;;;;;;;18.25;nan;96014.97;2058226;28;20077;-60
2023/08/14 01:01:27;;;;;;;4.38;2.92;;;;;;;18.28;90.79;96012.13;2050600;28;20063;-60
2023/08/14 01:02:28;;;;;;;3.15;2.85;;;;;;;18.29;90.75;96018.22;2058510;28;20055;-60
2023/08/14 01:03:29;;;;;;;5.63;3.00;;;;;;;18.28;91.17;96020.03;2049921;29;20408;-60
2023/08/14 01:04:30;;;;;;;5.30;2.90;;;;;;;18.28;91.26;96016.53;2049644;29;20058;-60
2023/08/14 01:05:31;;;;;;;5.68;2.80;;;;;;;18.26;91.20;96023.72;2049898;29;20061;-60
2023/08/14 01:06:32;;;;;;;5.22;2.60;;;;;;;18.27;91.73;96028.00;2058264;28;20058;-60
2023/08/14 01:07:34;;;;;;;3.30;2.72;;;;;;;18.28;91.72;96027.03;2058352;28;20063;-60
2023/08/14 01:08:35;;;;;;;4.10;2.65;;;;;;;18.27;91.30;96028.00;2066707;28;20054;-60
2023/08/14 01:09:36;;;;;;;4.25;2.72;;;;;;;18.27;91.69;96026.22;2065900;28;20058;-60
2023/08/14 01:10:58;;;;;;;2.70;2.35;;;;;;;18.25;91.57;96024.66;2050087;29;20078;-60
2023/08/14 01:12:07;;;;;;;3.78;2.58;;;;;;;18.24;92.06;96034.34;2056495;28;20054;-60
2023/08/14 01:13:15;;;;;;;4.07;2.70;;;;;;;18.24;92.28;96031.72;2066836;28;20475;-60
2023/08/14 01:14:27;;;;;;;5.07;2.78;;;;;;;18.24;91.93;96034.34;2058205;28;20046;-60
2023/08/14 01:15:34;;;;;;;4.55;2.95;;;;;;;18.20;92.02;96025.03;2050174;29;20126;-60
2023/08/14 01:16:39;;;;;;;4.30;2.80;;;;;;;18.24;91.52;96031.72;2050729;28;20056;-60
2023/08/14 01:17:44;;;;;;;8.23;2.70;;;;;;;18.24;91.82;96030.88;2050086;28;20289;-60
2023/08/14 01:18:45;;;;;;;5.25;3.08;;;;;;;18.21;91.93;96026.69;2042528;29;20059;-59
2023/08/14 01:19:47;;;;;;;4.28;2.88;;;;;;;18.24;91.60;96031.72;2050375;28;20051;-60
2023/08/14 01:21:19;;;;;;;4.30;2.45;;;;;;;18.24;91.99;96020.38;2050189;29;20055;-60
2023/08/14 01:22:29;;;;;;;4.03;2.80;;;;;;;18.11;92.54;96025.72;2061599;28;20053;-60
2023/08/14 01:23:36;;;;;;;3.55;2.58;;;;;;;18.13;92.15;96025.63;2067047;28;20054;-60
2023/08/14 01:24:53;;;;;;;3.67;2.60;;;;;;;18.12;92.58;96016.88;2058214;28;20553;-60
2023/08/14 01:25:54;;;;;;;6.65;2.97;;;;;;;18.07;92.80;96017.25;2060369;28;20434;-59
2023/08/14 01:26:56;;;;;;;3.92;2.75;;;;;;;18.07;92.58;96011.16;2049380;29;20058;-59
2023/08/14 01:27:58;;;;;;;4.40;2.75;;;;;;;18.05;92.77;95999.94;2050327;28;20055;-59
2023/08/14 01:28:59;;;;;;;6.15;3.00;;;;;;;18.10;92.32;96013.56;2058047;28;20529;-59
2023/08/14 01:30:00;;;;;;;5.35;2.90;;;;;;;18.10;92.34;95997.78;2058154;28;20061;-59
2023/08/14 01:31:01;;;;;;;3.92;2.53;;;;;;;18.13;92.26;96008.06;2066072;28;20050;-60
2023/08/14 01:32:03;;;;;;;3.85;2.50;;;;;;;18.15;92.54;96006.16;2057875;28;20055;-60
2023/08/14 01:33:04;;;;;;;6.00;2.70;;;;;;;18.17;92.49;96001.59;2057719;28;20054;-59
2023/08/14 01:34:05;;;;;;;3.78;2.58;;;;;;;18.17;92.33;96003.38;2066721;28;20055;-60
2023/08/14 01:35:06;;;;;;;3.85;2.88;;;;;;;18.12;91.81;95993.22;2057452;28;20402;-59
2023/08/14 01:36:23;;;;;;;3.08;2.30;;;;;;;18.15;91.95;96000.91;2049301;29;20039;-60
2023/08/14 01:37:31;;;;;;;4.07;2.65;;;;;;;18.15;92.45;96005.28;2052031;28;20055;-60
2023/08/14 01:38:42;;;;;;;3.47;2.70;;;;;;;18.20;92.19;96005.78;2051087;28;20570;-60
2023/08/14 01:39:46;;;;;;;4.57;2.47;;;;;;;18.20;91.73;96004.00;2035703;29;20417;-60
2023/08/14 01:40:52;;;;;;;3.75;2.65;;;;;;;18.18;91.96;95990.16;2035069;29;20060;-59
2023/08/14 01:42:01;;;;;;;3.28;2.40;;;;;;;18.13;92.25;95986.22;2035638;29;20052;-59
2023/08/14 01:43:16;;;;;;;4.32;2.58;;;;;;;18.13;91.74;95981.78;2044075;28;20051;-60
2023/08/14 01:44:18;;;;;;;3.85;3.03;;;;;;;18.18;91.82;95994.56;2036246;29;20059;-60
2023/08/14 01:45:19;;;;;;;4.45;2.40;;;;;;;18.20;91.53;95997.91;2035691;29;20063;-60
2023/08/14 01:46:20;;;;;;;5.90;2.92;;;;;;;18.22;91.33;96001.25;2042281;29;20385;-59
2023/08/14 01:47:21;;;;;;;3.75;2.78;;;;;;;18.28;91.16;96009.50;2042040;28;20047;-60
2023/08/14 01:48:23;;;;;;;3.15;2.40;;;;;;;18.27;91.11;95999.09;2050240;28;20059;-60
2023/08/14 01:49:24;;;;;;;2.83;2.10;;;;;;;18.28;91.34;96006.88;2049802;28;20047;-60
2023/08/14 01:50:26;;;;;;;3.22;2.40;;;;;;;18.27;91.20;96007.81;2058118;28;20060;-59
2023/08/14 01:51:28;;;;;;;3.28;2.38;;;;;;;18.33;91.17;96010.94;2057895;28;20047;-60
2023/08/14 01:52:30;;;;;;;4.38;2.40;;;;;;;18.37;91.02;96009.75;2049715;28;20055;-60
2023/08/14 01:53:34;;;;;;;5.35;2.83;;;;;;;18.29;90.84;96012.97;2057867;28;20455;-60
2023/08/14 01:54:35;;;;;;;5.72;3.22;;;;;;;18.35;90.83;96030.88;2065294;28;20054;-60
2023/08/14 01:55:36;;;;;;;3.47;3.00;;;;;;;18.34;91.45;96031.03;2065589;28;20541;-60
2023/08/14 01:56:38;;;;;;;4.38;2.90;;;;;;;18.28;91.67;96032.31;2065976;28;20058;-60
2023/08/14 01:57:40;;;;;;;3.35;2.67;;;;;;;18.37;91.50;96036.03;2057405;28;20447;-60
2023/08/14 01:58:41;;;;;;;4.15;2.80;;;;;;;18.36;91.54;96035.16;2049709;29;20055;-60
2023/08/14 01:59:43;;;;;;;4.07;2.80;;;;;;;18.36;91.46;96036.97;2049653;29;20055;-60
2023/08/14 02:00:44;;;;;;;3.10;2.30;;;;;;;18.36;91.77;96052.75;2058050;28;20055;-61
2023/08/14 02:01:45;;;;;;;4.47;2.60;;;;;;;18.31;92.58;96063.63;2057288;28;20059;-60
2023/08/14 02:02:47;;;;;;;4.47;3.00;;;;;;;18.26;92.51;96063.97;2056970;28;20061;-59
2023/08/14 02:03:48;;;;;;;2.83;2.40;;;;;;;18.27;92.65;96070.91;2058063;28;20472;-59
2023/08/14 02:04:49;;;;;;;6.13;2.83;;;;;;;18.24;92.76;96076.41;2050085;28;20051;-60
2023/08/14 02:05:52;;;;;;;5.43;3.15;;;;;;;18.25;92.73;96074.59;2049844;28;20051;-60
2023/08/14 02:06:53;;;;;;;3.63;2.55;;;;;;;18.26;92.81;96063.97;2057954;28;20058;-60
2023/08/14 02:07:55;;;;;;;4.15;3.20;;;;;;;18.23;92.99;96051.06;2066382;28;20399;-60
2023/08/14 02:08:56;;;;;;;5.38;3.10;;;;;;;18.27;93.14;96051.66;2065745;28;20050;-59
2023/08/14 02:09:57;;;;;;;4.70;2.60;;;;;;;18.29;93.04;96055.03;2066499;28;20083;-59
2023/08/14 02:10:58;;;;;;;4.97;2.90;;;;;;;18.25;92.63;96056.19;2066530;28;20430;-60
2023/08/14 02:12:01;;;;;;;5.47;3.00;;;;;;;18.24;93.19;96051.91;2065214;28;20124;-59
2023/08/14 02:13:02;;;;;;;4.32;2.90;;;;;;;18.21;92.85;96042.47;2057735;28;20058;-59
2023/08/14 02:14:03;;;;;;;6.13;2.95;;;;;;;18.20;92.86;96035.56;2049258;28;20079;-60
2023/08/14 02:15:05;;;;;;;5.15;2.92;;;;;;;18.21;92.60;96039.00;2049779;28;20047;-60
2023/08/14 02:16:06;;;;;;;5.28;2.60;;;;;;;18.18;92.54;96034.00;2057708;28;20102;-60
2023/08/14 02:17:07;;;;;;;4.10;2.65;;;;;;;18.19;93.19;96030.41;2065794;28;20057;-60
2023/08/14 02:18:08;;;;;;;5.60;3.03;;;;;;;18.21;93.04;96024.06;2057392;28;20050;-60
2023/08/14 02:19:09;;;;;;;4.32;2.53;;;;;;;18.20;92.33;96024.16;2057411;28;20054;-60
2023/08/14 02:20:11;;;;;;;4.00;2.88;;;;;;;18.20;92.52;96021.53;2065726;28;20057;-60
2023/08/14 02:21:12;;;;;;;5.28;3.20;;;;;;;18.19;94.08;96022.50;2057025;28;20396;-60
2023/08/14 02:22:13;;;;;;;4.10;2.80;;;;;;;18.19;93.72;96010.19;2057321;28;20047;-60
2023/08/14 02:23:14;;;;;;;4.38;3.10;;;;;;;18.19;93.76;96012.84;2057920;28;20054;-60
2023/08/14 02:24:15;;;;;;;3.72;3.08;;;;;;;18.20;93.60;96014.53;2065868;28;20396;-60
2023/08/14 02:25:16;;;;;;;4.57;2.70;;;;;;;18.19;93.38;96010.19;2066455;28;20050;-60
2023/08/14 02:26:17;;;;;;;3.80;2.90;;;;;;;18.16;93.97;96007.81;2066412;28;20061;-60
2023/08/14 02:27:18;;;;;;;3.22;2.80;;;;;;;18.15;93.99;96002.66;2057327;28;20058;-61
2023/08/14 02:28:19;;;;;;;4.53;2.75;;;;;;;18.17;93.82;96008.66;2057952;28;20133;-61
2023/08/14 02:29:23;;;;;;;3.75;3.03;;;;;;;18.17;94.76;95991.09;2057498;28;20055;-61
2023/08/14 02:30:24;;;;;;;4.45;3.22;;;;;;;18.16;94.53;95988.59;2057539;28;20063;-60
2023/08/14 02:31:25;;;;;;;4.95;3.10;;;;;;;18.05;94.63;95973.66;2066470;28;20047;-60
2023/08/14 02:32:26;;;;;;;4.40;2.75;;;;;;;18.08;95.46;95981.28;2065616;28;20058;-60
2023/08/14 02:33:29;;;;;;;5.60;2.90;;;;;;;18.10;95.32;95981.19;2065862;28;20046;-60
2023/08/14 02:34:49;;;;;;;4.68;3.20;;;;;;;18.11;94.54;95981.06;2057717;28;20107;-60
2023/08/14 02:35:50;;;;;;;3.70;2.70;;;;;;;18.15;95.83;95979.88;2057616;28;20054;-60
2023/08/14 02:36:51;;;;;;;4.35;2.80;;;;;;;18.15;95.48;95968.50;2057516;28;20047;-60
2023/08/14 02:37:52;;;;;;;5.47;3.60;;;;;;;18.12;95.14;95980.09;2066245;28;20050;-60
2023/08/14 02:38:53;;;;;;;4.78;2.85;;;;;;;18.11;95.26;95962.66;2066007;28;20418;-60
2023/08/14 02:39:54;;;;;;;3.63;2.85;;;;;;;18.14;95.15;95980.81;2066074;28;20057;-60
2023/08/14 02:40:56;;;;;;;6.00;3.55;;;;;;;18.15;95.99;95973.75;2065907;28;20061;-61
2023/08/14 02:41:58;;;;;;;5.03;3.20;;;;;;;18.12;95.74;95969.56;2065499;28;20061;-60
2023/08/14 02:43:01;;;;;;;5.85;2.92;;;;;;;18.09;95.91;95967.19;2057245;28;20431;-60
2023/08/14 02:44:02;;;;;;;6.70;3.28;;;;;;;18.12;95.97;95963.50;2057161;28;20051;-60
2023/08/14 02:45:05;;;;;;;5.70;3.40;;;;;;;18.10;95.46;95961.00;2056935;28;20571;-60
2023/08/14 02:46:06;;;;;;;4.78;3.13;;;;;;;18.08;95.66;95962.91;2057460;28;20073;-60
2023/08/14 02:47:07;;;;;;;5.32;3.05;;;;;;;18.07;95.49;95953.34;2066077;28;20053;-61
2023/08/14 02:48:08;;;;;;;5.13;3.03;;;;;;;18.06;95.91;95949.03;2065713;28;20053;-60
2023/08/14 02:49:09;;;;;;;5.10;3.55;;;;;;;18.03;96.76;95949.28;2065707;28;20046;-60
2023/08/14 02:50:10;;;;;;;4.25;3.25;;;;;;;18.02;97.42;95942.38;2065873;28;20058;-60
2023/08/14 02:51:12;;;;;;;6.20;3.22;;;;;;;17.96;97.28;95935.81;2057467;28;20503;-60
2023/08/14 02:52:13;;;;;;;8.23;3.08;;;;;;;18.03;96.66;95941.41;2057439;28;20051;-59
2023/08/14 02:53:14;;;;;;;4.68;2.83;;;;;;;17.99;97.62;95948.69;2065052;28;20058;-60
2023/08/14 02:54:15;;;;;;;5.28;3.53;;;;;;;17.91;97.97;95937.94;2065584;28;20412;-59
2023/08/14 02:55:16;;;;;;;4.63;3.05;;;;;;;17.83;97.87;95938.53;2066097;28;20057;-59
2023/08/14 02:56:17;;;;;;;5.13;3.58;;;;;;;17.83;98.29;95938.53;2057610;28;20483;-60
2023/08/14 02:57:18;;;;;;;5.65;3.85;;;;;;;17.80;98.34;95937.91;2057467;28;20054;-60
2023/08/14 02:58:19;;;;;;;6.03;4.10;;;;;;;17.82;99.10;95933.38;2057265;28;20051;-61
2023/08/14 02:59:21;;;;;;;5.72;3.60;;;;;;;17.82;98.67;95936.84;2049333;29;20066;-61
2023/08/14 03:00:22;;;;;;;6.32;3.70;;;;;;;17.77;98.06;95933.69;2056697;28;20058;-61
2023/08/14 03:01:23;;;;;;;4.40;3.70;;;;;;;17.78;98.47;95939.81;2064816;28;20410;-61
2023/08/14 03:02:24;;;;;;;4.60;3.55;;;;;;;17.72;98.37;95924.50;2065424;28;20058;-61
2023/08/14 03:03:25;;;;;;;6.55;3.65;;;;;;;17.75;98.33;95937.41;2065960;28;20050;-61
2023/08/14 03:04:26;;;;;;;5.07;3.55;;;;;;;17.76;98.47;95926.78;2066263;28;20411;-60
2023/08/14 03:05:27;;;;;;;5.15;3.75;;;;;;;17.76;99.09;95937.28;2066025;28;20081;-61
2023/08/14 03:06:31;;;;;;;5.78;3.40;;;;;;;17.80;98.47;95944.03;2066165;28;20065;-61
2023/08/14 03:07:32;;;;;;;4.32;3.40;;;;;;;17.79;99.42;95941.50;2065680;28;20412;-61
2023/08/14 03:08:33;;;;;;;4.47;3.63;;;;;;;17.77;99.10;95930.25;2065237;28;20061;-61
2023/08/14 03:09:34;;;;;;;7.30;3.90;;;;;;;17.79;99.14;95939.72;2065650;28;20061;-61
2023/08/14 03:10:35;;;;;;;5.28;3.90;;;;;;;17.81;99.16;95945.69;2065401;28;20054;-61
2023/08/14 03:11:36;;;;;;;4.40;3.50;;;;;;;17.75;98.78;95934.78;2065759;28;20486;-60
2023/08/14 03:12:37;;;;;;;6.55;3.95;;;;;;;17.78;98.88;95930.13;2065871;28;20059;-60
2023/08/14 03:13:38;;;;;;;7.05;3.75;;;;;;;17.74;99.47;95930.47;2065736;28;20061;-60
2023/08/14 03:14:40;;;;;;;4.97;3.72;;;;;;;17.71;99.94;95934.19;2056687;28;20065;-61
2023/08/14 03:15:41;;;;;;;6.47;3.70;;;;;;;17.69;100.00;95930.81;2057257;28;20065;-60
2023/08/14 03:16:42;;;;;;;5.63;3.75;;;;;;;17.74;100.00;95938.38;2065792;28;20506;-60
2023/08/14 03:17:43;;;;;;;4.05;3.55;;;;;;;17.71;99.77;95928.09;2065845;28;20054;-60
2023/08/14 03:18:44;;;;;;;4.47;3.47;;;;;;;17.71;99.68;95934.19;2065659;28;20058;-60
2023/08/14 03:19:46;;;;;;;6.10;3.95;;;;;;;17.70;99.58;95932.53;2066060;28;20050;-60
2023/08/14 03:20:47;;;;;;;5.50;3.88;;;;;;;17.66;99.47;95924.97;2065253;28;20054;-60
2023/08/14 03:21:51;;;;;;;10.80;3.67;;;;;;;17.68;99.77;95928.34;2065277;28;20067;-60
2023/08/14 03:22:52;;;;;;;8.65;3.88;;;;;;;17.70;99.72;95923.81;2056188;28;20047;-60
2023/08/14 03:23:53;;;;;;;4.93;3.55;;;;;;;17.68;99.94;95923.91;2057255;28;20062;-61
2023/08/14 03:24:54;;;;;;;6.07;3.75;;;;;;;17.68;99.54;95931.78;2065407;28;20054;-61
2023/08/14 03:25:55;;;;;;;5.82;3.88;;;;;;;17.66;100.00;95922.34;2065895;28;20120;-61
2023/08/14 03:26:56;;;;;;;6.43;3.83;;;;;;;17.66;100.00;95930.25;2056651;28;20057;-60
2023/08/14 03:27:57;;;;;;;6.78;4.28;;;;;;;17.64;100.00;95927.72;2049195;29;20047;-60
2023/08/14 03:28:58;;;;;;;4.72;3.83;;;;;;;17.61;100.00;95930.56;2057316;28;20479;-61
2023/08/14 03:30:00;;;;;;;4.93;3.90;;;;;;;17.57;100.00;95931.78;2065838;28;20475;-60
2023/08/14 03:31:01;;;;;;;6.43;4.45;;;;;;;17.60;100.00;95937.63;2057036;28;20057;-61
2023/08/14 03:32:03;;;;;;;6.30;4.28;;;;;;;17.63;100.00;95941.81;2048407;29;20055;-61
2023/08/14 03:33:04;;;;;;;5.55;4.20;;;;;;;17.63;100.00;95936.56;2057085;28;20054;-60
2023/08/14 03:34:06;;;;;;;8.60;4.45;;;;;;;17.59;100.00;95935.13;2064643;28;20054;-61
2023/08/14 03:35:07;;;;;;;6.57;4.20;;;;;;;17.59;100.00;95932.50;2056758;28;20061;-60
2023/08/14 03:36:08;;;;;;;6.75;4.30;;;;;;;17.60;100.00;95934.16;2048961;28;20047;-60
2023/08/14 03:37:10;;;;;;;5.15;4.30;;;;;;;17.61;100.00;95933.22;2057114;28;20491;-61
2023/08/14 03:38:11;;;;;;;8.70;4.53;;;;;;;17.61;100.00;95933.22;2056992;28;20058;-61
2023/08/14 03:39:12;;;;;;;7.05;4.30;;;;;;;17.64;100.00;95930.34;2048719;29;20058;-60
2023/08/14 03:40:14;;;;;;;4.50;4.10;;;;;;;17.63;100.00;95931.31;2049428;28;20439;-61
2023/08/14 03:41:17;;;;;;;7.00;4.43;;;;;;;17.64;100.00;95932.97;2049304;28;20136;-61
2023/08/14 03:42:19;;;;;;;6.30;4.50;;;;;;;17.63;100.00;95926.88;2057383;28;20059;-61
2023/08/14 03:43:20;;;;;;;5.07;4.28;;;;;;;17.63;100.00;95934.75;2056688;28;20062;-61
2023/08/14 03:44:21;;;;;;;5.93;4.20;;;;;;;17.64;100.00;95941.69;2048987;29;20062;-61
2023/08/14 03:45:22;;;;;;;5.57;4.43;;;;;;;17.62;100.00;95934.91;2049172;29;20082;-60
2023/08/14 03:46:23;;;;;;;6.55;4.68;;;;;;;17.63;100.00;95933.94;2057097;28;20541;-61
2023/08/14 03:47:24;;;;;;;7.20;4.25;;;;;;;17.61;100.00;95947.19;2065792;28;20065;-60
2023/08/14 03:48:25;;;;;;;7.13;4.38;;;;;;;17.59;100.00;95943.84;2065681;28;20058;-61
2023/08/14 03:49:26;;;;;;;5.60;3.97;;;;;;;17.61;100.00;95946.34;2065476;28;20498;-61
2023/08/14 03:50:27;;;;;;;7.03;4.18;;;;;;;17.60;100.00;95947.28;2056855;28;20063;-61
2023/08/14 03:51:28;;;;;;;5.78;4.47;;;;;;;17.59;100.00;95945.63;2057067;28;20066;-61
2023/08/14 03:52:30;;;;;;;5.93;4.28;;;;;;;17.61;100.00;95948.97;2065700;28;20050;-61
2023/08/14 03:53:31;;;;;;;7.75;4.75;;;;;;;17.57;100.00;95947.53;2065725;28;20054;-61
2023/08/14 03:54:33;;;;;;;5.50;4.65;;;;;;;17.62;100.00;95955.91;2056948;28;20054;-61
2023/08/14 03:55:34;;;;;;;7.80;4.60;;;;;;;17.60;100.00;95968.31;2048974;29;20067;-60
2023/08/14 03:56:35;;;;;;;9.20;5.28;;;;;;;17.57;100.00;95979.03;2057037;28;20058;-61
2023/08/14 03:57:36;;;;;;;5.50;4.90;;;;;;;17.56;100.00;95993.09;2065656;28;20526;-61
2023/08/14 03:58:37;;;;;;;9.30;4.70;;;;;;;17.57;100.00;96005.31;2065754;28;20065;-60
2023/08/14 03:59:38;;;;;;;7.45;4.95;;;;;;;17.57;100.00;96015.81;2065699;28;20042;-59
2023/08/14 04:00:39;;;;;;;6.95;4.47;;;;;;;17.57;100.00;96013.19;2065252;28;20050;-59
2023/08/14 04:01:42;;;;;;;7.25;4.93;;;;;;;17.52;100.00;96012.69;2057118;28;20503;-60
2023/08/14 04:02:44;;;;;;;6.18;4.63;;;;;;;17.55;100.00;96030.81;2057440;28;20058;-60
2023/08/14 04:03:45;;;;;;;9.60;5.22;;;;;;;17.54;100.00;96016.03;2065655;28;20050;-59
2023/08/14 04:04:46;;;;;;;7.93;5.35;;;;;;;17.53;100.00;96011.72;2065468;28;20054;-59
2023/08/14 04:05:48;;;;;;;6.80;5.63;;;;;;;17.55;100.00;96009.81;2057032;28;20063;-60
2023/08/14 04:06:49;;;;;;;8.23;5.38;;;;;;;17.57;100.00;96003.50;2056987;28;20046;-60
2023/08/14 04:07:51;;;;;;;9.80;5.75;;;;;;;17.60;100.00;96013.78;2066060;28;20483;-59
2023/08/14 04:08:52;;;;;;;6.57;5.03;;;;;;;17.63;100.00;96017.97;2056923;28;20070;-59
2023/08/14 04:09:53;;;;;;;7.85;5.68;;;;;;;17.67;100.00;96015.94;2057046;28;20055;-59
2023/08/14 04:10:56;;;;;;;7.70;5.55;;;;;;;17.68;100.00;96017.63;2065295;28;20410;-59
2023/08/14 04:11:58;;;;;;;9.75;5.28;;;;;;;17.69;100.00;96014.88;2065582;28;20046;-60
2023/08/14 04:12:59;;;;;;;8.93;5.63;;;;;;;17.69;100.00;96006.97;2067386;28;20050;-60
2023/08/14 04:14:00;;;;;;;7.68;5.40;;;;;;;17.64;100.00;95985.47;2067242;28;20046;-60
2023/08/14 04:15:14;;;;;;;7.18;5.57;;;;;;;17.64;100.00;95990.72;2067338;28;20054;-60
2023/08/14 04:16:16;;;;;;;6.75;5.40;;;;;;;17.72;100.00;95998.91;2058048;28;20525;-60
2023/08/14 04:17:17;;;;;;;7.00;5.20;;;;;;;17.74;100.00;95998.75;2058735;28;20487;-60
2023/08/14 04:18:18;;;;;;;7.30;5.18;;;;;;;17.78;100.00;96008.09;2058567;28;20055;-60
2023/08/14 04:19:19;;;;;;;7.47;5.78;;;;;;;17.80;100.00;96012.31;2058522;28;20055;-60
2023/08/14 04:20:20;;;;;;;7.00;5.57;;;;;;;17.75;100.00;95992.53;2067414;28;20054;-60
2023/08/14 04:21:21;;;;;;;8.50;5.57;;;;;;;17.85;100.00;96010.19;2067350;28;20046;-60
2023/08/14 04:22:23;;;;;;;8.70;5.18;;;;;;;17.90;99.98;96004.56;2058542;28;20055;-60
2023/08/14 04:23:24;;;;;;;7.65;5.13;;;;;;;17.92;99.95;96005.28;2050692;28;20115;-60
2023/08/14 04:24:26;;;;;;;8.63;5.57;;;;;;;18.04;100.00;96003.50;2058597;28;20074;-58
2023/08/14 04:25:28;;;;;;;7.97;5.07;;;;;;;18.11;100.00;96002.06;2058149;28;20062;-58
2023/08/14 04:26:29;;;;;;;8.52;5.65;;;;;;;18.19;99.46;96001.50;2050795;28;20063;-59
2023/08/14 04:27:31;;;;;;;8.00;5.47;;;;;;;18.33;99.45;96003.03;2050423;29;20062;-58
2023/08/14 04:28:32;;;;;;;5.15;4.13;;;;;;;18.42;98.66;96011.06;2050271;29;20058;-59
2023/08/14 04:29:33;;;;;;;7.38;4.75;;;;;;;18.49;97.69;96006.97;2058791;28;20062;-58
2023/08/14 04:30:34;;;;;;;8.23;4.72;;;;;;;18.59;96.38;96003.63;2067025;28;20410;-59
2023/08/14 04:31:35;;;;;;;8.98;4.70;;;;;;;18.54;95.92;96005.78;2066815;28;20058;-58
2023/08/14 04:32:37;;;;;;;7.90;4.70;;;;;;;18.57;96.39;96002.91;2058197;28;20058;-59
2023/08/14 04:33:38;;;;;;;6.65;4.57;;;;;;;18.70;96.35;95998.34;2050280;29;20063;-59
2023/08/14 04:34:39;;;;;;;8.07;5.13;;;;;;;18.77;95.51;95996.94;2057691;28;20059;-59
2023/08/14 04:35:40;;;;;;;6.93;4.90;;;;;;;18.80;94.91;95991.44;2058341;28;20070;-58
2023/08/14 04:36:42;;;;;;;8.55;4.57;;;;;;;18.94;94.86;96003.47;2057553;28;20055;-59
2023/08/14 04:37:43;;;;;;;6.05;4.30;;;;;;;19.00;94.00;96002.97;2058116;28;20058;-59
2023/08/14 04:38:44;;;;;;;8.95;4.15;;;;;;;19.03;93.10;95992.22;2058114;28;20055;-59
2023/08/14 04:39:45;;;;;;;6.72;4.22;;;;;;;19.07;92.64;95998.88;2066537;28;20050;-59
2023/08/14 04:40:46;;;;;;;7.68;4.60;;;;;;;19.12;92.54;95998.53;2066308;28;20073;-59
2023/08/14 04:41:48;;;;;;;7.43;4.40;;;;;;;19.15;91.56;95993.00;2058186;28;20446;-60
2023/08/14 04:42:50;;;;;;;5.68;4.35;;;;;;;19.24;90.86;95999.31;2058548;28;20470;-59
2023/08/14 04:43:51;;;;;;;6.65;4.20;;;;;;;19.12;91.01;96001.97;2058313;28;20050;-58
2023/08/14 04:44:52;;;;;;;7.57;4.20;;;;;;;18.97;91.55;95997.13;2050249;28;20062;-59
2023/08/14 04:45:54;;;;;;;10.40;4.55;;;;;;;19.05;90.90;96006.06;2058661;28;20058;-59
2023/08/14 04:46:55;;;;;;;7.15;4.30;;;;;;;18.97;91.15;96005.84;2065956;28;20069;-59
2023/08/14 04:47:57;;;;;;;8.68;4.35;;;;;;;18.88;91.33;95998.72;2058398;28;20058;-58
2023/08/14 04:48:59;;;;;;;6.20;4.80;;;;;;;18.85;91.38;95999.78;2049943;28;20530;-59
2023/08/14 04:50:00;;;;;;;6.82;4.68;;;;;;;18.72;92.16;95997.25;2049773;28;20415;-59
2023/08/14 04:51:01;;;;;;;8.98;4.35;;;;;;;18.70;92.72;95995.72;2050684;28;20067;-59